Time;durP1;ratioP1;P1;durP2;ratioP2;P2;SDS_P1;SDS_P2;PMS_P1;PMS_P2;Temp;Humidity;BMP_temperature;BMP_pressure;BME280_temperature;BME280_humidity;BME280_pressure;Samples;Min_cycle;Max_cycle;Signal;HPM_P1;HPM_P2
2022/03/04 00:02:20;;;;;;;12.48;8.75;;;;;;;;;;5046161;28;20033;-58
2022/03/04 00:05:06;;;;;;;11.55;8.00;;;;;;;;;;5060646;28;20132;-58
2022/03/04 00:07:50;;;;;;;10.30;7.35;;;;;;;;;;5067147;28;20060;-58
2022/03/04 00:10:46;;;;;;;9.20;6.63;;;;;;;;;;5065016;28;20533;-59
2022/03/04 00:13:24;;;;;;;10.85;8.10;;;;;;;;;;5050795;28;20037;-58
2022/03/04 00:16:02;;;;;;;14.40;7.88;;;;;;;;;;5066947;28;20075;-58
2022/03/04 00:18:41;;;;;;;12.20;8.50;;;;;;;;;;5068034;28;20025;-58
2022/03/04 00:21:27;;;;;;;;;;;;;;;;;;;;;
2022/03/04 00:24:05;;;;;;;15.45;8.40;;;;;;;;;;5109376;28;20051;-58
2022/03/04 00:26:58;;;;;;;12.35;8.10;;;;;;;;;;5109342;28;20032;-58
2022/03/04 00:35:58;;;;;;;8.23;5.57;;;;;;;;;;5082444;28;20045;-58
2022/03/04 00:38:30;;;;;;;9.43;8.10;;;;;;;;;;5086001;28;20494;-58
2022/03/04 00:41:22;;;;;;;12.35;7.13;;;;;;;;;;5085550;28;20481;-58
2022/03/04 00:44:32;;;;;;;11.27;7.93;;;;;;;;;;5085020;28;20052;-58
2022/03/04 00:50:12;;;;;;;10.23;7.85;;;;;;;;;;5052772;28;20037;-59
2022/03/04 00:53:01;;;;;;;10.57;8.02;;;;;;;;;;5049469;28;20045;-58
2022/03/04 00:55:27;;;;;;;15.85;8.18;;;;;;;;;;5065555;28;20120;-58
2022/03/04 00:58:09;;;;;;;11.23;7.20;;;;;;;;;;5104898;28;20104;-58
2022/03/04 01:01:10;;;;;;;10.55;7.50;;;;;;;;;;5103247;28;20046;-58
2022/03/04 01:04:05;;;;;;;11.53;8.13;;;;;;;;;;5107711;28;20118;-58
2022/03/04 01:12:52;;;;;;;9.23;6.97;;;;;;;;;;5045651;28;20060;-58
2022/03/04 01:18:49;;;;;;;9.27;7.00;;;;;;;;;;5046024;28;20096;-59
2022/03/04 01:21:41;;;;;;;;;;;;;;;;;;;;;
2022/03/04 01:24:23;;;;;;;9.67;6.93;;;;;;;;;;5045927;28;20094;-58
2022/03/04 01:27:09;;;;;;;11.80;7.80;;;;;;;;;;5044543;28;20046;-58
2022/03/04 01:32:58;;;;;;;12.47;7.93;;;;;;;;;;5044892;28;20036;-58
2022/03/04 01:35:37;;;;;;;;;;;;;;;;;;;;;
2022/03/04 01:38:39;;;;;;;9.47;7.60;;;;;;;;;;5087598;28;20063;-58
2022/03/04 01:47:06;;;;;;;;;;;;;;;;;;5045351;28;20145;-58
2022/03/04 01:50:05;;;;;;;7.90;6.90;;;;;;;;;;5075441;28;19904;-59
2022/03/04 01:55:58;;;;;;;;;;;;;;;;;;;;;
2022/03/04 01:58:57;;;;;;;14.73;6.77;;;;;;;;;;5107594;28;20056;-58
2022/03/04 02:04:36;;;;;;;13.13;7.60;;;;;;;;;;5107861;28;20070;-58
2022/03/04 02:07:09;;;;;;;13.53;7.10;;;;;;;;;;5105088;28;20036;-58
2022/03/04 02:10:11;;;;;;;12.13;8.60;;;;;;;;;;5106865;28;20036;-58
2022/03/04 02:15:43;;;;;;;8.27;7.33;;;;;;;;;;5107840;28;20039;-59
2022/03/04 02:18:35;;;;;;;11.80;8.07;;;;;;;;;;5106430;28;20036;-59
2022/03/04 02:27:05;;;;;;;10.93;7.72;;;;;;;;;;5064904;28;20386;-59
2022/03/04 02:30:05;;;;;;;12.07;8.77;;;;;;;;;;5085404;28;20029;-59
2022/03/04 02:32:47;;;;;;;11.60;7.27;;;;;;;;;;5085140;28;20071;-58
2022/03/04 02:35:17;;;;;;;17.47;8.13;;;;;;;;;;5085253;28;20029;-58
2022/03/04 02:38:12;;;;;;;13.33;7.90;;;;;;;;;;5086844;28;20052;-58
2022/03/04 02:41:00;;;;;;;11.93;8.87;;;;;;;;;;5102897;28;20093;-58
2022/03/04 02:43:32;;;;;;;12.45;8.50;;;;;;;;;;5107258;28;20081;-58
2022/03/04 02:46:22;;;;;;;11.27;8.55;;;;;;;;;;5106961;28;20050;-58
2022/03/04 02:49:04;;;;;;;10.50;8.23;;;;;;;;;;5108323;28;20062;-58
2022/03/04 02:51:41;;;;;;;12.13;8.20;;;;;;;;;;5108132;28;20043;-59
2022/03/04 02:54:55;;;;;;;19.37;8.47;;;;;;;;;;5107817;28;20059;-59
2022/03/04 02:57:34;;;;;;;12.43;8.07;;;;;;;;;;5086203;28;20052;-58
2022/03/04 03:00:23;;;;;;;13.30;8.07;;;;;;;;;;5085569;28;20108;-58
2022/03/04 03:02:56;;;;;;;11.35;7.72;;;;;;;;;;5093072;28;20032;-58
2022/03/04 03:05:35;;;;;;;10.00;7.47;;;;;;;;;;5107321;28;20023;-59
2022/03/04 03:08:13;;;;;;;13.33;8.67;;;;;;;;;;5107516;28;20028;-59
2022/03/04 03:11:01;;;;;;;14.67;9.53;;;;;;;;;;5109413;28;20052;-59
2022/03/04 03:16:39;;;;;;;10.53;8.00;;;;;;;;;;5107055;28;20051;-58
2022/03/04 03:19:43;;;;;;;10.70;9.23;;;;;;;;;;5110942;28;20037;-58
2022/03/04 03:22:22;;;;;;;15.10;9.67;;;;;;;;;;5070565;28;20067;-59
2022/03/04 03:24:56;;;;;;;16.87;10.13;;;;;;;;;;5088231;28;21228;-59
2022/03/04 03:27:45;;;;;;;10.40;8.53;;;;;;;;;;5102229;28;20047;-59
2022/03/04 03:30:57;;;;;;;11.93;8.97;;;;;;;;;;5110324;28;20024;-59
2022/03/04 03:33:29;;;;;;;11.00;8.03;;;;;;;;;;5106631;28;20032;-58
2022/03/04 03:45:23;;;;;;;11.37;8.50;;;;;;;;;;5047499;28;20053;-58
2022/03/04 03:48:08;;;;;;;15.30;9.63;;;;;;;;;;5048353;28;20072;-59
2022/03/04 03:51:01;;;;;;;16.17;9.60;;;;;;;;;;5041639;28;20057;-58
2022/03/04 03:53:56;;;;;;;13.37;10.63;;;;;;;;;;5047494;28;20030;-59
2022/03/04 03:56:50;;;;;;;15.33;9.10;;;;;;;;;;5094061;28;20048;-59
2022/03/04 03:59:38;;;;;;;11.57;9.37;;;;;;;;;;5106576;28;20028;-59
2022/03/04 04:08:21;;;;;;;14.43;8.53;;;;;;;;;;5047361;28;20044;-59
2022/03/04 04:11:16;;;;;;;13.10;9.50;;;;;;;;;;5086360;28;20043;-59
2022/03/04 04:14:01;;;;;;;12.70;9.27;;;;;;;;;;5107306;28;20520;-58
2022/03/04 04:23:34;;;;;;;15.52;9.60;;;;;;;;;;5084388;28;20036;-58
2022/03/04 04:26:19;;;;;;;14.40;8.63;;;;;;;;;;5007735;28;20038;-59
2022/03/04 04:32:31;;;;;;;16.13;11.73;;;;;;;;;;5048937;28;20144;-59
2022/03/04 04:35:00;;;;;;;9.95;7.80;;;;;;;;;;5066387;28;20044;-59
2022/03/04 04:37:45;;;;;;;11.37;8.60;;;;;;;;;;5066282;28;20037;-59
2022/03/04 04:40:14;;;;;;;11.23;8.63;;;;;;;;;;5066270;28;20040;-58
2022/03/04 04:42:41;;;;;;;13.70;9.03;;;;;;;;;;5048065;28;20033;-59
2022/03/04 04:48:07;;;;;;;18.47;8.73;;;;;;;;;;5066409;28;20075;-59
2022/03/04 04:51:00;;;;;;;12.80;9.03;;;;;;;;;;5065863;28;20044;-59
2022/03/04 04:54:10;;;;;;;15.93;10.57;;;;;;;;;;5048872;28;20594;-59
2022/03/04 04:59:35;;;;;;;11.17;8.23;;;;;;;;;;5006411;28;20034;-58
2022/03/04 05:02:16;;;;;;;10.87;8.40;;;;;;;;;;5007079;28;20039;-58
2022/03/04 05:05:34;;;;;;;12.00;8.33;;;;;;;;;;5006972;28;20057;-59
2022/03/04 05:08:04;;;;;;;13.00;9.57;;;;;;;;;;5010343;28;20092;-59
2022/03/04 05:10:49;;;;;;;17.00;10.63;;;;;;;;;;5064144;28;20568;-59
2022/03/04 05:13:56;;;;;;;13.57;9.53;;;;;;;;;;5108011;28;20050;-58
2022/03/04 05:16:42;;;;;;;15.43;8.93;;;;;;;;;;5101518;28;20043;-59
2022/03/04 05:19:14;;;;;;;16.53;9.23;;;;;;;;;;5108458;28;20055;-58
2022/03/04 05:22:10;;;;;;;14.47;9.83;;;;;;;;;;5108211;28;20031;-58
2022/03/04 05:25:09;;;;;;;12.40;7.93;;;;;;;;;;5106853;28;20034;-58
2022/03/04 05:28:07;;;;;;;13.83;9.23;;;;;;;;;;5099534;28;20047;-59
2022/03/04 05:30:43;;;;;;;11.57;8.13;;;;;;;;;;5104056;28;20031;-58
2022/03/04 05:36:14;;;;;;;12.13;9.07;;;;;;;;;;5065538;28;20036;-58
2022/03/04 05:42:04;;;;;;;10.83;9.27;;;;;;;;;;5092456;28;20047;-58
2022/03/04 05:47:50;;;;;;;14.97;9.07;;;;;;;;;;5092304;28;20091;-58
2022/03/04 05:57:13;;;;;;;11.70;8.43;;;;;;;;;;5007303;28;20160;-59
2022/03/04 05:59:59;;;;;;;13.67;10.47;;;;;;;;;;5012510;28;20034;-59
2022/03/04 06:02:48;;;;;;;13.97;9.07;;;;;;;;;;5012683;28;20494;-59
2022/03/04 06:06:01;;;;;;;13.20;8.10;;;;;;;;;;5028562;28;20138;-59
2022/03/04 06:11:38;;;;;;;10.53;9.33;;;;;;;;;;5012882;28;20056;-59
2022/03/04 06:14:32;;;;;;;17.23;9.80;;;;;;;;;;5013221;28;20026;-59
2022/03/04 06:17:21;;;;;;;15.60;10.90;;;;;;;;;;5033605;28;20036;-58
2022/03/04 06:23:04;;;;;;;15.57;9.97;;;;;;;;;;5093775;28;20173;-58
2022/03/04 06:25:49;;;;;;;13.73;9.67;;;;;;;;;;5093496;28;20028;-59
2022/03/04 06:28:41;;;;;;;12.40;10.03;;;;;;;;;;5091785;28;20485;-59
2022/03/04 06:31:10;;;;;;;13.23;9.60;;;;;;;;;;5090951;28;20028;-59
2022/03/04 06:33:49;;;;;;;11.03;8.60;;;;;;;;;;5093761;28;20457;-58
2022/03/04 06:39:30;;;;;;;12.43;8.70;;;;;;;;;;5059240;28;20040;-59
2022/03/04 06:42:14;;;;;;;15.23;10.80;;;;;;;;;;5073347;28;20071;-58
2022/03/04 06:44:41;;;;;;;14.97;10.33;;;;;;;;;;5092928;28;20493;-59
2022/03/04 06:47:39;;;;;;;14.03;10.60;;;;;;;;;;5097509;28;20032;-59
2022/03/04 06:50:30;;;;;;;17.13;10.93;;;;;;;;;;5093778;28;20043;-59
2022/03/04 06:53:02;;;;;;;11.05;9.40;;;;;;;;;;5098234;28;20065;-59
2022/03/04 06:56:16;;;;;;;13.87;11.13;;;;;;;;;;5074856;28;20509;-59
2022/03/04 07:04:49;;;;;;;14.47;10.57;;;;;;;;;;5066644;28;20039;-59
2022/03/04 07:16:05;;;;;;;16.07;11.43;;;;;;;;;;5054841;28;20119;-59
2022/03/04 07:25:15;;;;;;;11.87;9.30;;;;;;;;;;5011312;28;20033;-58
2022/03/04 07:28:00;;;;;;;16.93;10.97;;;;;;;;;;5061779;28;20489;-58
2022/03/04 07:30:48;;;;;;;15.50;10.63;;;;;;;;;;5097423;28;20373;-59
2022/03/04 07:33:36;;;;;;;13.03;9.47;;;;;;;;;;5097489;28;20051;-58
2022/03/04 07:36:19;;;;;;;17.05;12.13;;;;;;;;;;5097179;28;20090;-58
2022/03/04 07:42:04;;;;;;;18.77;11.23;;;;;;;;;;5097066;28;20373;-58
2022/03/04 07:45:08;;;;;;;;;;;;;;;;;;;;;
2022/03/04 07:51:05;;;;;;;13.90;11.27;;;;;;;;;;5089118;28;20028;-58
2022/03/04 07:56:52;;;;;;;14.30;10.90;;;;;;;;;;5096158;28;20105;-59
2022/03/04 08:00:08;;;;;;;;;;;;;;;;;;;;;
2022/03/04 08:03:19;;;;;;;13.15;10.45;;;;;;;;;;5062758;28;20402;-59
2022/03/04 08:12:46;;;;;;;15.88;11.30;;;;;;;;;;5064487;28;20075;-58
2022/03/04 08:18:47;;;;;;;13.67;9.97;;;;;;;;;;5082963;28;20054;-58
2022/03/04 08:21:51;;;;;;;;;;;;;;;;;;;;;
2022/03/04 08:27:49;;;;;;;22.38;11.35;;;;;;;;;;5035855;28;20105;-59
2022/03/04 08:30:25;;;;;;;11.65;10.43;;;;;;;;;;5035641;28;20571;-58
2022/03/04 08:33:24;;;;;;;21.80;12.40;;;;;;;;;;5074414;28;20040;-58
2022/03/04 08:39:02;;;;;;;21.73;13.32;;;;;;;;;;5071099;28;20530;-58
2022/03/04 08:41:41;;;;;;;14.93;11.77;;;;;;;;;;5076713;28;20044;-58
2022/03/04 08:44:43;;;;;;;14.88;12.20;;;;;;;;;;5095286;28;20032;-58
2022/03/04 08:53:16;;;;;;;17.20;11.75;;;;;;;;;;5094857;28;20501;-58
2022/03/04 08:55:50;;;;;;;16.38;12.18;;;;;;;;;;5095511;28;20537;-58
2022/03/04 08:58:25;;;;;;;12.85;11.52;;;;;;;;;;5076755;28;20094;-58
2022/03/04 09:01:02;;;;;;;17.70;13.50;;;;;;;;;;5095334;28;20023;-58
2022/03/04 09:03:47;;;;;;;18.20;13.50;;;;;;;;;;5076841;28;20477;-59
2022/03/04 09:06:22;;;;;;;19.67;12.13;;;;;;;;;;5094773;28;20035;-58
2022/03/04 09:08:54;;;;;;;22.00;13.73;;;;;;;;;;5094793;28;20107;-58
2022/03/04 09:11:42;;;;;;;19.85;13.35;;;;;;;;;;5078592;28;20051;-59
2022/03/04 09:14:11;;;;;;;21.33;13.13;;;;;;;;;;5094631;28;20024;-58
2022/03/04 09:19:51;;;;;;;16.05;11.90;;;;;;;;;;5095105;28;20474;-58
2022/03/04 09:22:38;;;;;;;17.52;11.98;;;;;;;;;;5095749;28;20031;-59
2022/03/04 09:25:46;;;;;;;;;;;;;;;;;;;;;
2022/03/04 09:28:22;;;;;;;17.55;12.52;;;;;;;;;;5095206;28;20381;-59
2022/03/04 09:37:53;;;;;;;28.58;14.43;;;;;;;;;;5093475;28;20035;-58
2022/03/04 09:40:16;;;;;;;17.98;12.07;;;;;;;;;;5086088;28;20474;-59
2022/03/04 09:43:09;;;;;;;20.10;12.55;;;;;;;;;;5094889;28;20381;-59
2022/03/04 09:45:46;;;;;;;16.35;13.35;;;;;;;;;;5093783;28;20117;-59
2022/03/04 09:48:25;;;;;;;13.95;11.48;;;;;;;;;;5093631;28;20040;-59
2022/03/04 09:57:16;;;;;;;18.75;11.18;;;;;;;;;;5094620;28;20116;-58
2022/03/04 10:03:19;;;;;;;16.30;11.38;;;;;;;;;;5072345;28;20059;-58
2022/03/04 10:06:01;;;;;;;18.92;12.13;;;;;;;;;;5071950;28;20060;-58
2022/03/04 10:08:49;;;;;;;15.40;12.20;;;;;;;;;;5072748;28;20590;-58
2022/03/04 10:11:55;;;;;;;19.27;13.43;;;;;;;;;;5059412;28;20443;-59
2022/03/04 10:14:47;;;;;;;;;;;;;;;;;;;;;
2022/03/04 10:20:45;;;;;;;16.02;10.50;;;;;;;;;;5096083;28;20032;-58
2022/03/04 10:26:56;;;;;;;22.65;14.40;;;;;;;;;;5063790;28;20028;-58
2022/03/04 10:29:43;;;;;;;14.73;11.18;;;;;;;;;;5098865;28;20016;-60
2022/03/04 10:32:22;;;;;;;15.75;10.98;;;;;;;;;;5094603;28;20549;-59
2022/03/04 10:35:22;;;;;;;16.92;11.73;;;;;;;;;;5099504;28;20035;-59
2022/03/04 10:38:20;;;;;;;23.50;12.47;;;;;;;;;;5098937;28;20458;-59
2022/03/04 10:41:07;;;;;;;18.45;12.48;;;;;;;;;;5098829;28;20052;-59
2022/03/04 10:43:56;;;;;;;19.73;13.20;;;;;;;;;;5101812;28;20466;-60
2022/03/04 10:47:07;;;;;;;15.23;11.02;;;;;;;;;;5090643;28;20033;-60
2022/03/04 10:49:44;;;;;;;16.30;13.07;;;;;;;;;;5097924;28;20454;-59
2022/03/04 10:52:25;;;;;;;17.77;11.98;;;;;;;;;;5095594;28;20036;-59
2022/03/04 10:55:16;;;;;;;18.70;12.20;;;;;;;;;;5096454;28;20083;-59
2022/03/04 10:57:46;;;;;;;23.52;13.23;;;;;;;;;;5097792;28;20078;-59
2022/03/04 11:04:06;;;;;;;19.10;12.13;;;;;;;;;;5088932;28;20128;-59
2022/03/04 11:06:58;;;;;;;18.77;12.82;;;;;;;;;;5077961;28;20113;-60
2022/03/04 11:09:47;;;;;;;17.40;11.90;;;;;;;;;;5096691;28;20114;-59
2022/03/04 11:12:42;;;;;;;;;;;;;;;;;;;;;
2022/03/04 11:15:14;;;;;;;18.13;12.60;;;;;;;;;;5097386;28;20115;-60
2022/03/04 11:17:58;;;;;;;17.77;12.98;;;;;;;;;;5096855;28;20381;-59
2022/03/04 11:20:42;;;;;;;19.88;13.25;;;;;;;;;;5097630;28;20349;-60
2022/03/04 11:26:13;;;;;;;;;;;;;;;;;;5097512;28;20055;-60
2022/03/04 11:28:56;;;;;;;15.75;10.60;;;;;;;;;;5097582;28;19904;-59
2022/03/04 11:31:31;;;;;;;17.60;11.82;;;;;;;;;;5096699;28;20046;-59
2022/03/04 11:34:16;;;;;;;16.08;11.68;;;;;;;;;;5095960;28;20408;-60
2022/03/04 11:37:01;;;;;;;18.25;12.40;;;;;;;;;;5094474;28;20044;-59
2022/03/04 11:39:52;;;;;;;20.52;12.25;;;;;;;;;;5076979;28;20123;-60
2022/03/04 11:42:52;;;;;;;;;;;;;;;;;;;;;
2022/03/04 11:45:59;;;;;;;16.45;11.35;;;;;;;;;;5091777;28;20032;-59
2022/03/04 11:48:33;;;;;;;17.70;13.00;;;;;;;;;;5069619;28;20533;-60
2022/03/04 11:51:21;;;;;;;14.07;11.63;;;;;;;;;;5094454;28;20046;-59
2022/03/04 11:54:05;;;;;;;17.17;12.15;;;;;;;;;;5076950;28;20042;-59
2022/03/04 12:00:19;;;;;;;21.17;12.57;;;;;;;;;;5083531;28;20485;-60
2022/03/04 12:03:09;;;;;;;17.20;13.20;;;;;;;;;;5036828;28;20541;-59
2022/03/04 12:05:51;;;;;;;21.33;14.52;;;;;;;;;;5057935;28;20032;-59
2022/03/04 12:14:47;;;;;;;22.48;13.73;;;;;;;;;;5096483;28;20110;-59
2022/03/04 12:17:29;;;;;;;20.73;13.40;;;;;;;;;;5097391;28;20450;-60
2022/03/04 12:20:13;;;;;;;19.55;13.13;;;;;;;;;;5096449;28;20077;-60
2022/03/04 12:26:06;;;;;;;18.75;12.82;;;;;;;;;;5096119;28;20512;-60
2022/03/04 12:28:54;;;;;;;;;;;;;;;;;;;;;
2022/03/04 12:35:07;;;;;;;19.30;12.50;;;;;;;;;;5072159;28;20523;-60
2022/03/04 12:41:03;;;;;;;16.95;11.82;;;;;;;;;;5033285;28;20036;-60
2022/03/04 12:43:35;;;;;;;19.25;12.20;;;;;;;;;;5019157;28;20068;-60
2022/03/04 12:46:44;;;;;;;;;;;;;;;;;;;;;
2022/03/04 12:52:51;;;;;;;23.85;11.98;;;;;;;;;;5071384;28;20074;-59
2022/03/04 12:55:31;;;;;;;16.70;11.77;;;;;;;;;;5073871;28;20020;-60
2022/03/04 12:58:06;;;;;;;15.83;12.07;;;;;;;;;;5079848;28;20039;-59
2022/03/04 13:00:49;;;;;;;14.50;11.00;;;;;;;;;;5097252;28;20269;-59
2022/03/04 13:04:04;;;;;;;17.75;12.00;;;;;;;;;;5094631;28;20488;-59
2022/03/04 13:06:39;;;;;;;16.92;11.77;;;;;;;;;;5072862;28;20111;-59
2022/03/04 13:09:26;;;;;;;15.25;12.13;;;;;;;;;;5072963;28;20062;-60
2022/03/04 13:11:54;;;;;;;17.77;11.23;;;;;;;;;;5065065;28;20613;-59
2022/03/04 13:14:44;;;;;;;12.60;11.02;;;;;;;;;;5072424;28;20085;-59
2022/03/04 13:18:04;;;;;;;16.80;11.27;;;;;;;;;;5041903;28;20580;-59
2022/03/04 13:20:59;;;;;;;14.47;10.77;;;;;;;;;;5055903;28;20024;-59
2022/03/04 13:23:41;;;;;;;11.90;9.23;;;;;;;;;;5087796;28;20050;-59
2022/03/04 13:26:36;;;;;;;15.18;9.80;;;;;;;;;;5093153;28;20686;-59
2022/03/04 13:29:13;;;;;;;22.10;10.57;;;;;;;;;;5076953;28;20047;-60
2022/03/04 13:32:01;;;;;;;;;;;;;;;;;;;;;
2022/03/04 13:34:42;;;;;;;;;;;;;;;;;;;;;
2022/03/04 13:37:25;;;;;;;14.25;9.88;;;;;;;;;;5094282;28;20397;-59
2022/03/04 13:40:17;;;;;;;12.70;9.73;;;;;;;;;;5095126;28;20400;-59
2022/03/04 13:42:52;;;;;;;;;;;;;;;;;;5095203;28;20031;-59
2022/03/04 13:45:54;;;;;;;12.52;8.27;;;;;;;;;;5086907;28;19912;-59
2022/03/04 13:49:06;;;;;;;14.38;9.52;;;;;;;;;;5089282;28;20481;-60
2022/03/04 13:51:58;;;;;;;10.45;8.43;;;;;;;;;;5054255;28;20040;-60
2022/03/04 13:54:53;;;;;;;13.77;9.15;;;;;;;;;;5069759;28;20032;-58
2022/03/04 14:00:31;;;;;;;;;;;;;;;;;;5062672;28;20405;-57
2022/03/04 14:03:26;;;;;;;10.63;7.35;;;;;;;;;;5089657;28;19912;-57
2022/03/04 14:06:08;;;;;;;15.63;8.85;;;;;;;;;;5075079;28;20137;-57
2022/03/04 14:08:56;;;;;;;12.55;8.88;;;;;;;;;;5076083;28;20506;-58
2022/03/04 14:11:58;;;;;;;15.00;9.32;;;;;;;;;;5091630;28;20087;-59
2022/03/04 14:14:48;;;;;;;12.32;8.60;;;;;;;;;;5092056;28;20183;-59
2022/03/04 14:18:02;;;;;;;10.18;7.53;;;;;;;;;;5092381;28;20043;-58
2022/03/04 14:20:40;;;;;;;15.55;9.50;;;;;;;;;;5091972;28;20173;-58
2022/03/04 14:23:41;;;;;;;12.27;9.20;;;;;;;;;;5074937;28;20118;-59
2022/03/04 14:26:31;;;;;;;12.82;9.45;;;;;;;;;;5058759;28;20082;-59
2022/03/04 14:29:35;;;;;;;;;;;;;;;;;;;;;
2022/03/04 14:32:37;;;;;;;;;;;;;;;;;;;;;
2022/03/04 14:35:04;;;;;;;18.45;9.20;;;;;;;;;;5089695;28;20504;-58
2022/03/04 14:40:43;;;;;;;15.90;9.82;;;;;;;;;;5081013;28;20111;-59
2022/03/04 14:43:31;;;;;;;12.80;8.88;;;;;;;;;;5092509;28;20085;-58
2022/03/04 14:46:25;;;;;;;;;;;;;;;;;;;;;
2022/03/04 14:52:25;;;;;;;8.43;6.68;;;;;;;;;;5083296;28;20078;-58
2022/03/04 14:55:21;;;;;;;12.35;9.93;;;;;;;;;;5093847;28;20477;-58
2022/03/04 15:01:00;;;;;;;14.13;8.32;;;;;;;;;;5094078;28;20386;-58
2022/03/04 15:10:19;;;;;;;11.85;8.77;;;;;;;;;;5055476;28;20021;-58
2022/03/04 15:13:09;;;;;;;8.30;7.10;;;;;;;;;;5055131;28;20057;-58
2022/03/04 15:16:04;;;;;;;11.88;7.32;;;;;;;;;;5087785;28;20458;-58
2022/03/04 15:18:50;;;;;;;9.98;7.35;;;;;;;;;;5102153;28;20036;-58
2022/03/04 15:21:26;;;;;;;9.55;6.03;;;;;;;;;;5095409;28;20024;-58
2022/03/04 15:27:06;;;;;;;10.20;6.85;;;;;;;;;;5034212;28;20124;-58
2022/03/04 15:29:43;;;;;;;;;;;;;;;;;;;;;
2022/03/04 15:32:35;;;;;;;11.20;7.05;;;;;;;;;;5097449;28;20026;-58
2022/03/04 15:35:26;;;;;;;11.75;7.07;;;;;;;;;;5096599;28;20035;-58
2022/03/04 15:38:32;;;;;;;;;;;;;;;;;;;;;
2022/03/04 15:41:38;;;;;;;;;;;;;;;;;;;;;
2022/03/04 15:44:38;;;;;;;11.90;7.68;;;;;;;;;;5078007;28;20373;-58
2022/03/04 15:47:23;;;;;;;12.25;7.60;;;;;;;;;;5095071;28;20481;-58
2022/03/04 15:53:07;;;;;;;;;;;;;;;;;;;;;
2022/03/04 15:55:44;;;;;;;10.90;6.43;;;;;;;;;;5091511;28;20478;-58
2022/03/04 15:58:22;;;;;;;9.77;6.25;;;;;;;;;;5094811;28;20044;-58
2022/03/04 16:01:05;;;;;;;9.40;6.68;;;;;;;;;;5093703;28;20028;-58
2022/03/04 16:03:51;;;;;;;8.57;6.07;;;;;;;;;;5094837;28;20028;-58
2022/03/04 16:06:59;;;;;;;10.00;6.97;;;;;;;;;;5094642;28;20474;-58
2022/03/04 16:09:36;;;;;;;11.82;5.80;;;;;;;;;;5094966;28;20077;-58
2022/03/04 16:12:22;;;;;;;11.63;7.35;;;;;;;;;;5077835;28;20056;-59
2022/03/04 16:20:40;;;;;;;11.88;8.45;;;;;;;;;;5095983;28;20035;-58
2022/03/04 16:23:38;;;;;;;12.75;8.30;;;;;;;;;;5094875;28;20483;-58
2022/03/04 16:29:32;;;;;;;9.80;7.10;;;;;;;;;;5095736;28;20063;-58
2022/03/04 16:32:30;;;;;;;;;;;;;;;;;;;;;
2022/03/04 16:35:22;;;;;;;13.93;9.25;;;;;;;;;;5092880;28;20111;-59
2022/03/04 16:41:27;;;;;;;11.50;7.78;;;;;;;;;;5032937;28;20426;-58
2022/03/04 16:44:02;;;;;;;8.90;6.65;;;;;;;;;;5033337;28;20108;-58
2022/03/04 16:52:35;;;;;;;16.33;8.50;;;;;;;;;;5090193;28;20115;-58
2022/03/04 16:55:04;;;;;;;14.45;8.82;;;;;;;;;;5096221;28;20024;-58
2022/03/04 16:57:53;;;;;;;12.68;8.70;;;;;;;;;;5094127;28;20042;-58
2022/03/04 17:00:49;;;;;;;14.10;7.93;;;;;;;;;;5092975;28;20461;-58
2022/03/04 17:03:46;;;;;;;16.05;7.95;;;;;;;;;;5096366;28;20024;-58
2022/03/04 17:06:25;;;;;;;;;;;;;;;;;;;;;
2022/03/04 17:09:04;;;;;;;10.23;7.65;;;;;;;;;;5095528;28;20430;-60
2022/03/04 17:14:48;;;;;;;13.63;8.38;;;;;;;;;;5095478;28;20140;-60
2022/03/04 17:17:29;;;;;;;16.50;8.57;;;;;;;;;;5095178;28;20036;-60
2022/03/04 17:20:22;;;;;;;13.40;8.68;;;;;;;;;;5094022;28;20499;-57
2022/03/04 17:22:55;;;;;;;11.85;7.47;;;;;;;;;;5092557;28;20058;-60
2022/03/04 17:25:30;;;;;;;13.40;8.48;;;;;;;;;;5094135;28;20500;-60
2022/03/04 17:28:11;;;;;;;11.70;6.90;;;;;;;;;;5095116;28;20023;-60
2022/03/04 17:31:17;;;;;;;15.88;7.28;;;;;;;;;;5095137;28;20024;-60
2022/03/04 17:34:11;;;;;;;9.63;6.95;;;;;;;;;;5089705;28;20117;-60
2022/03/04 17:36:52;;;;;;;12.13;7.03;;;;;;;;;;5092859;28;20098;-60
2022/03/04 17:39:30;;;;;;;11.73;6.95;;;;;;;;;;5094929;28;20024;-60
2022/03/04 17:45:24;;;;;;;9.52;5.88;;;;;;;;;;5091303;28;20040;-60
2022/03/04 17:48:01;;;;;;;9.10;5.88;;;;;;;;;;5094575;28;20028;-60
2022/03/04 17:50:50;;;;;;;;;;;;;;;;;;;;;
2022/03/04 17:53:44;;;;;;;12.80;6.18;;;;;;;;;;5091841;28;20093;-60
2022/03/04 17:57:10;;;;;;;9.75;5.65;;;;;;;;;;5071956;28;20036;-60
2022/03/04 17:59:41;;;;;;;9.10;5.03;;;;;;;;;;5071050;28;20466;-60
2022/03/04 18:02:41;;;;;;;11.07;6.20;;;;;;;;;;5066345;28;20044;-60
2022/03/04 18:11:47;;;;;;;10.65;5.63;;;;;;;;;;5071779;28;20036;-60
2022/03/04 18:14:20;;;;;;;7.55;4.43;;;;;;;;;;5071624;28;20413;-58
2022/03/04 18:17:25;;;;;;;9.57;4.97;;;;;;;;;;5071066;28;20386;-58
2022/03/04 18:20:16;;;;;;;8.15;5.47;;;;;;;;;;5071485;28;20035;-63
2022/03/04 18:23:18;;;;;;;;;;;;;;;;;;;;;
2022/03/04 18:26:05;;;;;;;7.88;4.47;;;;;;;;;;5069510;28;20033;-58
2022/03/04 18:28:49;;;;;;;8.27;5.72;;;;;;;;;;5092744;28;20453;-58
2022/03/04 18:31:28;;;;;;;9.95;5.05;;;;;;;;;;5094194;28;20067;-58
2022/03/04 18:34:13;;;;;;;10.32;5.10;;;;;;;;;;5094071;28;20119;-58
2022/03/04 18:43:13;;;;;;;;;;;;;;;;;;;;;
2022/03/04 18:48:46;;;;;;;9.63;4.93;;;;;;;;;;5098245;28;20121;-58
2022/03/04 18:51:16;;;;;;;6.53;4.05;;;;;;;;;;5095834;28;20036;-58
2022/03/04 18:53:53;;;;;;;4.68;3.47;;;;;;;;;;5098286;28;20099;-58
2022/03/04 18:56:41;;;;;;;7.88;4.45;;;;;;;;;;5098334;28;20020;-58
2022/03/04 18:59:22;;;;;;;7.50;4.40;;;;;;;;;;5095944;28;20043;-58
2022/03/04 19:01:54;;;;;;;6.90;3.20;;;;;;;;;;5098259;28;20093;-58
2022/03/04 19:07:22;;;;;;;6.63;4.68;;;;;;;;;;5073106;28;20118;-58
2022/03/04 19:10:16;;;;;;;6.78;4.18;;;;;;;;;;5097471;28;20032;-59
2022/03/04 19:13:02;;;;;;;4.68;2.75;;;;;;;;;;5093248;28;20508;-59
2022/03/04 19:21:46;;;;;;;7.00;3.65;;;;;;;;;;5097373;28;20081;-59
2022/03/04 19:24:38;;;;;;;7.70;4.50;;;;;;;;;;5098294;28;20421;-58
2022/03/04 19:27:42;;;;;;;5.90;3.70;;;;;;;;;;5098239;28;20059;-58
2022/03/04 19:30:26;;;;;;;5.55;3.97;;;;;;;;;;5097769;28;20071;-58
2022/03/04 19:33:15;;;;;;;;;;;;;;;;;;;;;
2022/03/04 19:35:52;;;;;;;9.98;5.30;;;;;;;;;;5096952;28;20099;-58
2022/03/04 19:38:37;;;;;;;8.05;4.10;;;;;;;;;;5097109;28;20107;-59
2022/03/04 19:41:30;;;;;;;8.40;5.00;;;;;;;;;;5097897;28;20039;-58
2022/03/04 19:44:15;;;;;;;8.93;4.95;;;;;;;;;;5097587;28;20028;-59
2022/03/04 19:46:48;;;;;;;9.68;4.90;;;;;;;;;;5097433;28;20020;-58
2022/03/04 19:49:21;;;;;;;8.27;4.88;;;;;;;;;;5098945;28;20020;-58
2022/03/04 19:52:22;;;;;;;11.65;5.03;;;;;;;;;;5095532;28;20039;-59
2022/03/04 19:58:08;;;;;;;7.90;3.27;;;;;;;;;;5033468;28;20038;-59
2022/03/04 20:03:29;;;;;;;7.85;5.00;;;;;;;;;;5063254;28;20028;-58
2022/03/04 20:06:24;;;;;;;5.72;4.35;;;;;;;;;;5093913;28;20024;-58
2022/03/04 20:09:13;;;;;;;14.37;5.37;;;;;;;;;;5058352;28;20107;-59
2022/03/04 20:14:48;;;;;;;7.88;5.25;;;;;;;;;;5082456;28;20467;-58
2022/03/04 20:17:21;;;;;;;7.43;5.05;;;;;;;;;;5077209;28;20166;-60
2022/03/04 20:20:05;;;;;;;8.57;5.50;;;;;;;;;;5075537;28;20424;-60
2022/03/04 20:25:48;;;;;;;7.70;5.15;;;;;;;;;;5093804;28;20031;-58
2022/03/04 20:28:44;;;;;;;9.68;5.32;;;;;;;;;;5093258;28;20032;-58
2022/03/04 20:31:26;;;;;;;;;;;;;;;;;;;;;
2022/03/04 20:37:15;;;;;;;6.63;4.60;;;;;;;;;;5092367;28;20039;-58
2022/03/04 20:40:18;;;;;;;11.02;5.75;;;;;;;;;;5095092;28;20414;-59
2022/03/04 20:43:16;;;;;;;8.43;5.10;;;;;;;;;;5072987;28;20502;-58
2022/03/04 20:46:02;;;;;;;8.05;5.78;;;;;;;;;;5054373;28;20528;-57
2022/03/04 20:49:01;;;;;;;;;;;;;;;;;;;;;
2022/03/04 20:51:36;;;;;;;9.02;5.63;;;;;;;;;;5073511;28;20044;-58
2022/03/04 20:54:19;;;;;;;15.30;7.43;;;;;;;;;;5073446;28;20654;-57
2022/03/04 20:56:49;;;;;;;9.75;6.53;;;;;;;;;;5072948;28;20128;-60
2022/03/04 21:02:38;;;;;;;10.30;6.33;;;;;;;;;;5068440;28;20132;-57
2022/03/04 21:05:07;;;;;;;6.10;5.05;;;;;;;;;;5056587;28;20102;-57
2022/03/04 21:08:06;;;;;;;;;;;;;;;;;;;;;
2022/03/04 21:10:44;;;;;;;9.80;6.20;;;;;;;;;;5038068;28;20490;-58
2022/03/04 21:16:36;;;;;;;8.75;5.95;;;;;;;;;;5095000;28;20044;-57
2022/03/04 21:19:21;;;;;;;7.93;6.20;;;;;;;;;;5095406;28;20377;-57
2022/03/04 21:27:47;;;;;;;8.93;5.40;;;;;;;;;;5096521;28;20054;-58
2022/03/04 21:30:37;;;;;;;10.47;6.77;;;;;;;;;;5094955;28;20032;-58
2022/03/04 21:33:29;;;;;;;9.77;6.07;;;;;;;;;;5095518;28;20020;-57
2022/03/04 21:36:11;;;;;;;9.55;6.57;;;;;;;;;;5094923;28;20020;-57
2022/03/04 21:38:53;;;;;;;11.13;7.47;;;;;;;;;;5095299;28;20047;-58
2022/03/04 21:41:41;;;;;;;11.93;7.30;;;;;;;;;;5095406;28;20488;-58
2022/03/04 21:44:29;;;;;;;14.10;8.47;;;;;;;;;;5094649;28;20465;-58
2022/03/04 21:47:18;;;;;;;;;;;;;;;;;;;;;
2022/03/04 21:50:14;;;;;;;9.63;6.90;;;;;;;;;;5095298;28;20099;-59
2022/03/04 21:53:27;;;;;;;;;;;;;;;;;;;;;
2022/03/04 22:08:38;;;;;;;10.32;6.63;;;;;;;;;;5100870;28;20032;-58
2022/03/04 22:14:13;;;;;;;12.37;6.47;;;;;;;;;;5104066;28;20050;-61
2022/03/04 22:19:39;;;;;;;7.20;6.30;;;;;;;;;;5097246;28;20056;-58
2022/03/04 22:22:23;;;;;;;8.70;6.77;;;;;;;;;;5109471;28;20035;-58
2022/03/04 22:25:08;;;;;;;11.77;6.53;;;;;;;;;;5086746;28;20044;-58